Time;durP1;ratioP1;P1;durP2;ratioP2;P2;SDS_P1;SDS_P2;PMS_P1;PMS_P2;Temp;Humidity;BMP_temperature;BMP_pressure;BME280_temperature;BME280_humidity;BME280_pressure;Samples;Min_cycle;Max_cycle;Signal;HPM_P1;HPM_P2
2023/05/12 00:01:56;;;;;;;12.25;8.90;;;11.50;99.90;;;;;;5053908;28;20052;-59
2023/05/12 00:04:22;;;;;;;13.68;8.35;;;11.60;99.90;;;;;;5052797;28;20842;-60
2023/05/12 00:06:48;;;;;;;12.75;7.85;;;11.60;99.90;;;;;;5052508;28;20045;-60
2023/05/12 00:09:13;;;;;;;10.18;6.13;;;11.50;99.90;;;;;;5034820;28;20037;-60
2023/05/12 00:11:39;;;;;;;10.35;6.43;;;11.60;99.90;;;;;;5058982;28;20037;-60
2023/05/12 00:14:05;;;;;;;8.55;6.00;;;11.60;99.90;;;;;;5053456;28;20040;-60
2023/05/12 00:16:31;;;;;;;7.13;4.90;;;11.60;99.90;;;;;;5057755;28;20036;-60
2023/05/12 00:18:57;;;;;;;8.35;5.53;;;11.60;99.90;;;;;;5053467;28;20040;-60
2023/05/12 00:21:22;;;;;;;7.47;4.90;;;11.60;99.90;;;;;;5053204;28;20040;-61
2023/05/12 00:23:48;;;;;;;7.63;4.72;;;11.60;99.90;;;;;;5037356;28;20037;-60
2023/05/12 00:26:14;;;;;;;7.38;4.90;;;11.60;99.90;;;;;;5051881;28;20041;-60
2023/05/12 00:28:40;;;;;;;12.20;5.90;;;11.60;99.90;;;;;;5038969;28;20123;-60
2023/05/12 00:31:05;;;;;;;8.40;4.78;;;11.60;99.90;;;;;;5038274;28;20719;-60
2023/05/12 00:33:31;;;;;;;5.95;4.32;;;11.50;99.90;;;;;;5052488;28;20044;-60
2023/05/12 00:35:59;;;;;;;8.30;5.30;;;11.60;99.90;;;;;;5055689;28;20075;-60
2023/05/12 00:38:28;;;;;;;9.50;5.75;;;11.60;99.90;;;;;;5052364;28;21097;-61
2023/05/12 00:40:53;;;;;;;9.25;5.63;;;11.60;99.90;;;;;;5054531;28;20163;-59
2023/05/12 00:43:19;;;;;;;10.82;6.95;;;11.60;99.90;;;;;;5051360;28;20579;-61
2023/05/12 00:45:45;;;;;;;11.10;7.32;;;11.70;99.90;;;;;;5053882;28;20044;-60
2023/05/12 00:48:11;;;;;;;11.13;7.30;;;11.70;99.90;;;;;;5034393;28;20423;-60
2023/05/12 00:50:36;;;;;;;12.85;8.68;;;11.70;99.90;;;;;;5052629;28;20033;-60
2023/05/12 00:53:03;;;;;;;13.95;9.25;;;11.70;99.90;;;;;;5052900;28;20080;-61
2023/05/12 00:55:30;;;;;;;18.20;10.70;;;11.70;99.90;;;;;;5054458;28;20033;-61
2023/05/12 00:57:56;;;;;;;15.40;9.63;;;11.70;99.90;;;;;;5035647;28;20048;-60
2023/05/12 01:00:21;;;;;;;18.50;10.02;;;11.70;99.90;;;;;;5054579;28;20850;-60
2023/05/12 01:02:47;;;;;;;19.02;10.27;;;11.70;99.90;;;;;;5038222;28;20048;-61
2023/05/12 01:05:13;;;;;;;14.18;9.32;;;11.70;99.90;;;;;;5054944;28;20502;-61
2023/05/12 01:07:41;;;;;;;19.17;10.77;;;11.70;99.90;;;;;;5052742;28;20041;-61
2023/05/12 01:10:20;;;;;;;17.27;10.70;;;11.70;99.90;;;;;;5056143;28;20648;-61
2023/05/12 01:12:46;;;;;;;18.35;11.20;;;11.70;99.90;;;;;;5045887;28;20048;-60
2023/05/12 01:15:12;;;;;;;16.60;10.48;;;11.70;99.90;;;;;;5052879;28;20048;-60
2023/05/12 01:17:44;;;;;;;17.92;9.82;;;11.70;99.90;;;;;;5053250;28;21985;-60
2023/05/12 01:20:12;;;;;;;20.80;11.63;;;11.70;99.90;;;;;;5037197;28;20442;-60
2023/05/12 01:22:38;;;;;;;25.30;12.27;;;11.70;99.90;;;;;;5055412;28;20438;-60
2023/05/12 01:25:07;;;;;;;22.75;11.65;;;11.70;99.90;;;;;;5055919;28;20055;-60
2023/05/12 01:27:33;;;;;;;20.15;12.07;;;11.70;99.90;;;;;;5059101;28;20808;-60
2023/05/12 01:30:01;;;;;;;22.52;12.63;;;11.70;99.90;;;;;;5024198;28;20093;-59
2023/05/12 01:32:29;;;;;;;27.13;14.70;;;11.70;99.90;;;;;;5056187;28;20037;-60
2023/05/12 01:34:54;;;;;;;25.70;13.60;;;11.70;99.90;;;;;;5020439;28;20638;-60
2023/05/12 01:37:20;;;;;;;26.33;14.45;;;11.70;99.90;;;;;;5059159;28;20094;-60
2023/05/12 01:39:46;;;;;;;29.83;15.80;;;11.70;99.90;;;;;;5060269;28;20033;-60
2023/05/12 01:42:12;;;;;;;32.70;16.80;;;11.70;99.90;;;;;;5037597;28;20047;-59
2023/05/12 01:44:41;;;;;;;27.95;16.55;;;11.70;99.90;;;;;;5055448;28;21072;-59
2023/05/12 01:47:08;;;;;;;30.55;16.35;;;11.70;99.90;;;;;;5050527;28;20040;-59
2023/05/12 01:49:37;;;;;;;26.48;17.73;;;11.70;99.90;;;;;;5056906;28;20053;-59
2023/05/12 01:52:03;;;;;;;33.15;18.40;;;11.70;99.90;;;;;;5056926;28;20399;-59
2023/05/12 01:54:29;;;;;;;32.72;18.90;;;11.70;99.90;;;;;;5065811;28;20047;-58
2023/05/12 01:56:55;;;;;;;33.65;20.00;;;11.70;99.90;;;;;;5028880;28;20053;-60
2023/05/12 01:59:21;;;;;;;32.25;18.40;;;11.70;99.90;;;;;;5058066;28;20387;-59
2023/05/12 02:01:46;;;;;;;31.40;17.85;;;11.70;99.90;;;;;;5055296;28;20041;-60
2023/05/12 02:04:12;;;;;;;39.45;18.77;;;11.70;99.90;;;;;;5056548;28;20063;-59
2023/05/12 02:06:38;;;;;;;27.77;17.02;;;11.70;99.90;;;;;;5044468;28;20045;-58
2023/05/12 02:09:04;;;;;;;27.38;16.80;;;11.70;99.90;;;;;;5056176;28;20044;-59
2023/05/12 02:11:29;;;;;;;28.40;16.15;;;11.70;99.90;;;;;;5041048;28;20115;-60
2023/05/12 02:13:55;;;;;;;32.17;16.05;;;11.70;99.90;;;;;;5056790;28;20040;-60
2023/05/12 02:16:21;;;;;;;29.48;15.18;;;11.70;99.90;;;;;;5053331;28;20531;-59
2023/05/12 02:18:47;;;;;;;28.52;15.63;;;11.70;99.90;;;;;;5056613;28;20043;-59
2023/05/12 02:21:16;;;;;;;34.47;15.45;;;11.70;99.90;;;;;;5055777;28;20045;-60
2023/05/12 02:23:42;;;;;;;30.33;15.73;;;11.70;99.90;;;;;;5056197;28;20521;-60
2023/05/12 02:26:07;;;;;;;34.20;16.33;;;11.70;99.90;;;;;;5056965;28;20037;-60
2023/05/12 02:28:33;;;;;;;27.05;14.07;;;11.70;99.90;;;;;;5037082;28;20036;-60
2023/05/12 02:30:59;;;;;;;28.23;15.85;;;11.70;99.90;;;;;;5029367;28;20028;-60
2023/05/12 02:33:25;;;;;;;31.33;16.35;;;11.80;99.90;;;;;;5035303;28;22056;-60
2023/05/12 02:35:51;;;;;;;32.97;14.85;;;11.80;99.90;;;;;;5057515;28;20072;-60
2023/05/12 02:38:17;;;;;;;35.63;17.25;;;11.80;99.90;;;;;;5042068;28;20076;-60
2023/05/12 02:40:43;;;;;;;32.70;15.38;;;11.80;99.90;;;;;;5059385;28;20024;-60
2023/05/12 02:43:08;;;;;;;33.03;15.88;;;11.80;99.90;;;;;;5059781;28;20363;-60
2023/05/12 02:45:34;;;;;;;29.13;16.23;;;11.80;99.90;;;;;;5056111;28;20135;-60
2023/05/12 02:48:00;;;;;;;27.27;15.35;;;11.80;99.90;;;;;;5058108;28;20059;-60
2023/05/12 02:50:26;;;;;;;34.50;17.63;;;11.90;99.90;;;;;;5059339;28;20051;-60
2023/05/12 02:52:51;;;;;;;35.22;18.08;;;11.90;99.90;;;;;;5057776;28;20733;-59
2023/05/12 02:55:17;;;;;;;41.65;18.85;;;11.90;99.90;;;;;;5055135;28;20041;-60
2023/05/12 02:57:43;;;;;;;31.83;17.92;;;11.90;99.90;;;;;;5055672;28;20029;-60
2023/05/12 03:00:09;;;;;;;34.03;18.35;;;12.00;99.90;;;;;;5054538;28;20040;-60
2023/05/12 03:02:37;;;;;;;36.25;18.77;;;11.90;99.90;;;;;;5034408;28;20040;-60
2023/05/12 03:05:04;;;;;;;31.92;17.83;;;12.00;99.90;;;;;;5041511;28;20048;-59
2023/05/12 03:07:30;;;;;;;36.55;19.77;;;12.00;99.90;;;;;;5042172;28;20166;-59
2023/05/12 03:09:56;;;;;;;34.45;19.75;;;12.00;99.90;;;;;;5040591;28;20151;-60
2023/05/12 03:12:22;;;;;;;44.28;21.23;;;12.00;99.90;;;;;;5059772;28;20202;-59
2023/05/12 03:14:47;;;;;;;43.05;21.67;;;12.00;99.90;;;;;;5023810;28;20040;-59
2023/05/12 03:17:13;;;;;;;32.38;18.67;;;12.00;99.90;;;;;;5039034;28;20527;-60
2023/05/12 03:19:39;;;;;;;37.35;19.67;;;12.10;99.90;;;;;;5059936;28;20033;-59
2023/05/12 03:22:07;;;;;;;42.72;21.17;;;12.10;99.90;;;;;;5060258;28;20028;-60
2023/05/12 03:24:33;;;;;;;44.90;21.60;;;12.10;99.90;;;;;;5024125;28;20040;-60
2023/05/12 03:26:59;;;;;;;40.25;21.23;;;12.10;99.90;;;;;;5025028;28;20059;-60
2023/05/12 03:29:25;;;;;;;38.88;22.15;;;12.10;99.90;;;;;;5058387;28;20415;-60
2023/05/12 03:31:51;;;;;;;40.78;23.05;;;12.20;99.90;;;;;;5057779;28;20519;-60
2023/05/12 03:34:17;;;;;;;40.22;22.95;;;12.10;99.90;;;;;;5054365;28;20051;-60
2023/05/12 03:36:44;;;;;;;51.20;24.30;;;12.20;99.90;;;;;;5035476;28;20048;-58
2023/05/12 03:39:11;;;;;;;48.22;23.98;;;12.20;99.90;;;;;;5040286;28;20403;-58
2023/05/12 03:41:37;;;;;;;56.80;27.02;;;12.20;99.90;;;;;;5055135;28;20116;-60
2023/05/12 03:44:04;;;;;;;56.30;28.08;;;12.20;99.90;;;;;;5058350;28;20516;-60
2023/05/12 03:46:30;;;;;;;59.20;29.10;;;12.20;99.90;;;;;;5056989;28;20037;-59
2023/05/12 03:48:57;;;;;;;60.45;28.63;;;12.20;99.90;;;;;;5058891;28;20120;-60
2023/05/12 03:51:24;;;;;;;50.58;26.92;;;12.20;99.90;;;;;;5025189;28;20036;-59
2023/05/12 03:53:49;;;;;;;54.17;27.70;;;12.20;99.90;;;;;;5038009;28;20132;-60
2023/05/12 03:56:16;;;;;;;60.47;29.33;;;12.30;99.90;;;;;;5039397;28;20044;-60
2023/05/12 03:58:42;;;;;;;55.72;26.55;;;12.20;99.90;;;;;;5057515;28;20040;-60
2023/05/12 04:01:08;;;;;;;50.38;27.13;;;12.20;99.90;;;;;;5055296;28;20033;-59
2023/05/12 04:03:33;;;;;;;56.20;27.25;;;12.20;99.90;;;;;;5039070;28;20393;-60
2023/05/12 04:06:01;;;;;;;59.72;28.08;;;12.30;99.90;;;;;;5048748;28;20131;-60
2023/05/12 04:08:27;;;;;;;50.95;28.63;;;12.30;99.90;;;;;;5055161;28;20032;-59
2023/05/12 04:10:57;;;;;;;54.53;27.52;;;12.30;99.90;;;;;;5058129;28;20123;-59
2023/05/12 04:13:27;;;;;;;67.32;30.80;;;12.30;99.90;;;;;;5036397;28;20499;-59
2023/05/12 04:15:57;;;;;;;57.17;27.42;;;12.30;99.90;;;;;;5039967;28;20091;-60
2023/05/12 04:18:25;;;;;;;52.65;28.15;;;12.30;99.90;;;;;;5059325;28;20053;-60
2023/05/12 04:20:50;;;;;;;48.35;25.33;;;12.30;99.90;;;;;;5059400;28;20041;-60
2023/05/12 04:23:16;;;;;;;66.53;29.48;;;12.30;99.90;;;;;;5054326;28;20504;-60
2023/05/12 04:25:42;;;;;;;61.15;28.30;;;12.30;99.90;;;;;;5054676;28;20045;-60
2023/05/12 04:28:08;;;;;;;66.03;28.52;;;12.40;99.90;;;;;;5053062;28;20044;-60
2023/05/12 04:30:35;;;;;;;59.42;27.55;;;12.30;99.90;;;;;;5039611;28;20040;-59
2023/05/12 04:33:01;;;;;;;50.33;27.83;;;12.40;99.90;;;;;;5040607;28;20043;-58
2023/05/12 04:35:27;;;;;;;50.85;26.85;;;12.40;99.90;;;;;;5058730;28;20041;-58
2023/05/12 04:37:53;;;;;;;54.40;25.90;;;12.40;99.90;;;;;;5056001;28;20127;-60
2023/05/12 04:40:18;;;;;;;62.72;29.33;;;12.40;99.90;;;;;;5040070;28;20047;-59
2023/05/12 04:42:44;;;;;;;55.65;26.40;;;12.40;99.90;;;;;;5056131;28;20116;-60
2023/05/12 04:45:10;;;;;;;62.40;29.20;;;12.40;99.90;;;;;;5059257;28;20051;-60
2023/05/12 04:47:36;;;;;;;61.08;29.25;;;12.40;99.90;;;;;;5055582;28;20044;-60
2023/05/12 04:50:03;;;;;;;67.03;30.75;;;12.50;99.90;;;;;;5037263;28;20053;-60
2023/05/12 04:52:29;;;;;;;52.55;28.15;;;12.50;99.90;;;;;;5060087;28;20419;-60
2023/05/12 04:54:55;;;;;;;52.78;26.42;;;12.50;99.90;;;;;;5038603;28;20036;-60
2023/05/12 04:57:20;;;;;;;61.33;29.77;;;12.50;99.90;;;;;;5058870;28;20102;-59
2023/05/12 04:59:46;;;;;;;63.45;28.75;;;12.60;99.90;;;;;;5059113;28;20044;-60
2023/05/12 05:02:12;;;;;;;58.35;27.83;;;12.60;99.90;;;;;;5025822;28;20471;-60
2023/05/12 05:04:38;;;;;;;57.72;28.58;;;12.60;99.90;;;;;;5041699;28;20135;-60
2023/05/12 05:07:04;;;;;;;57.88;28.33;;;12.60;99.90;;;;;;5060691;28;20105;-62
2023/05/12 05:09:29;;;;;;;60.13;28.00;;;12.60;99.90;;;;;;5060707;28;20070;-60
2023/05/12 05:11:55;;;;;;;57.78;27.88;;;12.70;99.90;;;;;;5058854;28;20047;-59
2023/05/12 05:14:21;;;;;;;59.15;27.25;;;12.70;99.90;;;;;;5059845;28;20687;-59
2023/05/12 05:16:47;;;;;;;58.00;28.88;;;12.70;99.90;;;;;;5043051;28;20037;-60
2023/05/12 05:19:13;;;;;;;71.03;29.25;;;12.70;99.90;;;;;;5041664;28;20049;-61
2023/05/12 05:21:39;;;;;;;60.28;27.60;;;12.80;99.90;;;;;;5042116;28;20040;-60
2023/05/12 05:24:05;;;;;;;49.53;25.63;;;12.80;99.90;;;;;;5042782;28;20572;-60
2023/05/12 05:26:31;;;;;;;51.72;27.70;;;12.80;99.90;;;;;;5062503;28;20036;-60
2023/05/12 05:28:57;;;;;;;50.85;25.30;;;12.90;99.90;;;;;;5061038;28;20037;-60
2023/05/12 05:31:23;;;;;;;58.50;29.83;;;12.90;99.90;;;;;;5058200;28;20554;-60
2023/05/12 05:33:48;;;;;;;51.15;26.85;;;12.90;99.90;;;;;;5046736;28;20044;-60
2023/05/12 05:36:15;;;;;;;57.60;27.55;;;12.90;99.90;;;;;;5054626;28;20056;-60
2023/05/12 05:38:41;;;;;;;54.92;26.23;;;12.90;99.90;;;;;;5025952;28;20048;-60
2023/05/12 05:41:07;;;;;;;64.32;30.23;;;12.90;99.90;;;;;;5039755;28;20047;-60
2023/05/12 05:43:32;;;;;;;63.72;31.05;;;12.90;99.90;;;;;;5033661;28;20036;-60
2023/05/12 05:45:58;;;;;;;48.78;25.67;;;12.90;99.90;;;;;;5042520;28;20048;-61
2023/05/12 05:48:24;;;;;;;54.40;28.77;;;13.00;99.90;;;;;;5058259;28;20044;-60
2023/05/12 05:50:53;;;;;;;49.78;26.63;;;13.00;99.90;;;;;;5057208;28;20089;-60
2023/05/12 05:53:19;;;;;;;59.35;28.58;;;13.10;99.90;;;;;;5017123;28;20127;-60
2023/05/12 05:55:47;;;;;;;53.10;26.73;;;13.10;99.90;;;;;;5054856;28;20048;-60
2023/05/12 05:58:14;;;;;;;50.58;26.95;;;13.20;99.90;;;;;;5038567;28;20667;-60
2023/05/12 06:00:41;;;;;;;52.10;26.88;;;13.20;99.90;;;;;;5024319;28;20072;-60
2023/05/12 06:03:07;;;;;;;48.58;25.63;;;13.20;99.90;;;;;;5059690;28;20036;-59
2023/05/12 06:05:32;;;;;;;60.90;29.30;;;13.30;99.90;;;;;;5055330;28;20048;-60
2023/05/12 06:07:58;;;;;;;58.35;29.38;;;13.30;99.90;;;;;;5055927;28;20032;-61
2023/05/12 06:10:24;;;;;;;57.38;28.63;;;13.30;99.90;;;;;;5039657;28;20491;-60
2023/05/12 06:12:50;;;;;;;48.85;27.55;;;13.40;99.90;;;;;;5039390;28;20047;-59
2023/05/12 06:15:16;;;;;;;51.15;27.25;;;13.40;99.90;;;;;;5023600;28;20517;-59
2023/05/12 06:17:42;;;;;;;49.83;27.05;;;13.50;99.90;;;;;;5056734;28;20162;-60
2023/05/12 06:20:08;;;;;;;57.58;29.23;;;13.50;99.90;;;;;;5036280;28;20039;-61
2023/05/12 06:22:34;;;;;;;45.83;26.02;;;13.50;99.90;;;;;;5057806;28;20060;-60
2023/05/12 06:25:00;;;;;;;47.20;26.15;;;13.50;99.90;;;;;;5044989;28;20515;-60
2023/05/12 06:27:26;;;;;;;50.30;26.80;;;13.60;99.90;;;;;;5041969;28;20072;-60
2023/05/12 06:29:52;;;;;;;46.78;27.30;;;13.60;99.90;;;;;;5046688;28;20064;-60
2023/05/12 06:32:18;;;;;;;41.25;23.88;;;13.60;99.90;;;;;;5064809;28;20041;-59
2023/05/12 06:34:43;;;;;;;48.08;27.23;;;13.60;99.90;;;;;;5045186;28;20241;-58
2023/05/12 06:37:18;;;;;;;46.30;25.73;;;13.60;99.90;;;;;;5063036;28;20094;-60
2023/05/12 06:39:43;;;;;;;48.60;27.77;;;13.70;99.90;;;;;;5047692;28;20045;-59
2023/05/12 06:42:10;;;;;;;45.00;26.20;;;13.70;99.90;;;;;;5050267;28;20055;-59
2023/05/12 06:44:36;;;;;;;40.67;25.67;;;13.70;99.90;;;;;;5068119;28;20040;-61
2023/05/12 06:47:02;;;;;;;42.30;27.02;;;13.80;99.90;;;;;;5064401;28;20095;-61
2023/05/12 06:49:27;;;;;;;40.97;25.17;;;13.80;99.90;;;;;;5031678;28;20075;-59
2023/05/12 06:51:53;;;;;;;45.92;28.33;;;13.90;99.90;;;;;;5050067;28;20504;-60
2023/05/12 06:54:19;;;;;;;45.42;27.58;;;13.90;99.90;;;;;;5063259;28;20041;-60
2023/05/12 06:56:45;;;;;;;40.75;24.63;;;13.90;99.90;;;;;;5051181;28;20509;-58
2023/05/12 06:59:12;;;;;;;48.25;27.25;;;13.90;99.90;;;;;;5054851;28;20089;-59
2023/05/12 07:01:37;;;;;;;43.72;25.88;;;13.90;99.90;;;;;;5058751;28;20545;-59
2023/05/12 07:04:03;;;;;;;42.72;27.63;;;14.00;99.90;;;;;;5038345;28;20044;-60
2023/05/12 07:06:30;;;;;;;46.45;28.95;;;14.00;99.90;;;;;;5049365;28;20127;-60
2023/05/12 07:08:56;;;;;;;48.28;27.25;;;14.10;99.90;;;;;;5047434;28;20076;-59
2023/05/12 07:11:22;;;;;;;45.63;27.17;;;14.10;99.90;;;;;;5068359;28;20081;-60
2023/05/12 07:13:49;;;;;;;43.10;25.08;;;14.20;99.90;;;;;;5055243;28;20055;-59
2023/05/12 07:16:15;;;;;;;45.38;27.63;;;14.20;99.90;;;;;;5072947;28;20045;-60
2023/05/12 07:18:42;;;;;;;43.63;26.70;;;14.30;99.90;;;;;;5063421;28;20169;-60
2023/05/12 07:21:08;;;;;;;44.72;24.15;;;14.40;99.90;;;;;;5074786;28;20502;-60
2023/05/12 07:23:35;;;;;;;39.45;26.20;;;14.50;99.90;;;;;;5050756;28;20100;-60
2023/05/12 07:26:02;;;;;;;40.08;26.10;;;14.60;99.90;;;;;;5043758;28;20055;-60
2023/05/12 07:28:31;;;;;;;41.20;24.30;;;14.60;99.90;;;;;;5060743;28;20123;-60
2023/05/12 07:30:58;;;;;;;38.28;24.70;;;14.60;99.90;;;;;;5061753;28;20498;-60
2023/05/12 07:33:24;;;;;;;34.47;23.77;;;14.70;99.90;;;;;;5045941;28;20436;-60
2023/05/12 07:35:50;;;;;;;34.70;22.63;;;14.70;99.90;;;;;;5042133;28;20053;-60
2023/05/12 07:38:16;;;;;;;35.10;23.35;;;14.80;99.90;;;;;;5064686;28;20047;-61
2023/05/12 07:40:43;;;;;;;38.95;25.67;;;14.80;99.90;;;;;;5061636;28;20037;-59
2023/05/12 07:43:09;;;;;;;38.80;25.38;;;14.80;99.90;;;;;;5065877;28;20044;-60
2023/05/12 07:45:35;;;;;;;40.33;25.23;;;14.90;99.90;;;;;;5063330;28;20450;-59
2023/05/12 07:48:01;;;;;;;35.72;25.25;;;14.90;99.90;;;;;;5061074;28;20097;-60
2023/05/12 07:50:27;;;;;;;35.88;25.98;;;15.00;99.90;;;;;;5023251;28;20040;-61
2023/05/12 07:52:53;;;;;;;34.42;26.30;;;15.10;99.90;;;;;;5043212;28;20639;-59
2023/05/12 07:55:20;;;;;;;34.00;25.38;;;15.10;99.90;;;;;;5059089;28;20051;-58
2023/05/12 07:57:50;;;;;;;36.30;26.17;;;15.10;99.90;;;;;;5031626;28;20040;-60
2023/05/12 08:00:17;;;;;;;35.72;25.75;;;15.20;99.90;;;;;;5059730;28;20040;-60
2023/05/12 08:02:43;;;;;;;39.05;25.83;;;15.20;99.90;;;;;;5058988;28;20059;-60
2023/05/12 08:05:09;;;;;;;36.35;25.60;;;15.30;99.90;;;;;;5057677;28;20090;-60
2023/05/12 08:07:38;;;;;;;38.47;27.25;;;15.30;99.90;;;;;;5037529;28;20043;-60
2023/05/12 08:10:05;;;;;;;31.75;24.60;;;15.40;99.90;;;;;;5064360;28;20176;-60
2023/05/12 08:12:31;;;;;;;42.03;27.65;;;15.40;99.90;;;;;;5027666;28;20518;-59
2023/05/12 08:14:57;;;;;;;38.00;28.60;;;15.50;99.90;;;;;;5060391;28;20117;-60
2023/05/12 08:17:23;;;;;;;38.42;28.15;;;15.50;99.90;;;;;;5037676;28;20102;-60
2023/05/12 08:19:49;;;;;;;37.58;29.23;;;15.60;99.90;;;;;;5040268;28;20060;-61
2023/05/12 08:22:15;;;;;;;39.30;27.00;;;15.60;99.90;;;;;;5062181;28;20041;-61
2023/05/12 08:24:41;;;;;;;41.00;26.70;;;15.70;99.90;;;;;;5046184;28;20484;-61
2023/05/12 08:27:07;;;;;;;34.28;25.90;;;15.80;99.90;;;;;;5058916;28;20049;-61
2023/05/12 08:29:33;;;;;;;38.35;28.70;;;15.90;99.90;;;;;;5109709;22;20039;-64
2023/05/12 08:31:59;;;;;;;34.63;24.90;;;16.10;99.90;;;;;;5091647;28;20036;-63
2023/05/12 08:34:25;;;;;;;32.90;25.73;;;16.20;99.90;;;;;;5075051;28;20047;-63
2023/05/12 08:36:54;;;;;;;38.58;28.42;;;16.30;99.90;;;;;;5074739;28;20036;-62
2023/05/12 08:39:20;;;;;;;34.05;26.77;;;16.40;99.90;;;;;;5087321;28;20679;-63
2023/05/12 08:42:02;;;;;;;35.08;26.00;;;16.60;99.90;;;;;;5111824;28;20043;-63
2023/05/12 08:44:28;;;;;;;38.63;26.00;;;16.70;99.90;;;;;;5111966;28;20035;-63
2023/05/12 08:46:57;;;;;;;31.70;25.60;;;16.90;99.90;;;;;;5112104;28;20055;-63
2023/05/12 08:49:25;;;;;;;33.70;26.65;;;17.10;99.90;;;;;;5094900;28;20055;-61
2023/05/12 08:51:53;;;;;;;34.42;26.15;;;17.30;99.90;;;;;;5094861;28;20043;-64
2023/05/12 08:54:21;;;;;;;28.23;23.33;;;17.40;99.90;;;;;;5111864;28;20127;-62
2023/05/12 08:56:48;;;;;;;31.27;26.15;;;17.50;99.90;;;;;;5095071;28;20543;-63
2023/05/12 08:59:14;;;;;;;32.20;25.95;;;17.60;99.90;;;;;;5095290;28;20401;-64
2023/05/12 09:01:41;;;;;;;30.00;25.42;;;17.70;99.90;;;;;;5094687;28;20039;-63
2023/05/12 09:04:07;;;;;;;29.00;25.45;;;17.80;99.90;;;;;;5111057;28;20490;-65
2023/05/12 09:06:33;;;;;;;27.77;24.05;;;17.80;99.90;;;;;;5111147;28;20045;-61
2023/05/12 09:08:59;;;;;;;30.10;24.92;;;18.00;99.90;;;;;;5111517;28;20031;-63
2023/05/12 09:11:25;;;;;;;28.85;24.08;;;18.10;99.90;;;;;;5094569;28;20074;-63
2023/05/12 09:13:59;;;;;;;27.65;23.35;;;18.30;99.90;;;;;;5088334;28;20036;-63
2023/05/12 09:16:26;;;;;;;;;;;18.40;99.90;;;;;;5091642;28;20051;-63
2023/05/12 09:18:53;;;;;;;27.95;24.95;;;18.50;99.90;;;;;;5091078;28;19974;-63
2023/05/12 09:21:20;;;;;;;28.90;25.13;;;18.60;99.90;;;;;;5091368;28;20115;-64
2023/05/12 09:24:04;;;;;;;26.17;22.48;;;18.80;99.90;;;;;;5091007;28;20123;-64
2023/05/12 09:26:32;;;;;;;28.50;25.40;;;19.00;99.90;;;;;;5074439;28;20067;-64
2023/05/12 09:29:05;;;;;;;27.60;24.60;;;19.20;99.90;;;;;;5091209;28;20036;-64
2023/05/12 09:31:31;;;;;;;;;;;19.30;99.90;;;;;;5091666;28;20044;-63
2023/05/12 09:33:57;;;;;;;26.52;23.42;;;19.20;99.90;;;;;;5091127;28;19939;-62
2023/05/12 09:36:24;;;;;;;27.08;24.17;;;19.30;99.90;;;;;;5074641;28;20404;-64
2023/05/12 09:39:03;;;;;;;27.42;23.45;;;19.40;99.90;;;;;;5090782;28;20065;-63
2023/05/12 09:41:29;;;;;;;28.33;24.58;;;19.40;99.90;;;;;;5093945;28;20036;-64
2023/05/12 09:43:55;;;;;;;26.25;23.42;;;19.40;99.90;;;;;;5094576;28;20097;-64
2023/05/12 09:46:23;;;;;;;25.63;22.23;;;19.40;99.90;;;;;;5094760;28;20067;-64
2023/05/12 09:48:49;;;;;;;26.48;23.02;;;19.60;99.90;;;;;;5094329;28;20122;-63
2023/05/12 09:51:18;;;;;;;27.55;24.05;;;19.60;99.90;;;;;;5077859;28;20622;-62
2023/05/12 09:53:45;;;;;;;24.90;22.20;;;19.60;99.90;;;;;;5060904;28;20043;-63
2023/05/12 09:56:16;;;;;;;25.38;22.65;;;19.70;99.90;;;;;;5094548;28;20054;-64
2023/05/12 09:58:46;;;;;;;22.52;20.23;;;19.90;99.90;;;;;;5094122;28;20051;-63
2023/05/12 10:01:17;;;;;;;24.98;22.42;;;19.90;99.90;;;;;;5094888;27;20043;-60
2023/05/12 10:03:46;;;;;;;24.38;21.77;;;20.10;99.90;;;;;;5101981;27;20503;-62
2023/05/12 10:06:24;;;;;;;31.33;24.30;;;20.30;99.90;;;;;;5105705;27;20537;-63
2023/05/12 10:09:18;;;;;;;27.67;22.40;;;20.50;99.90;;;;;;5108466;27;20035;-66
2023/05/12 10:11:45;;;;;;;23.55;20.02;;;20.50;99.90;;;;;;5113260;27;20151;-66
2023/05/12 10:14:12;;;;;;;21.10;18.13;;;20.50;99.90;;;;;;5113405;27;20046;-64
2023/05/12 10:16:40;;;;;;;20.48;18.48;;;20.70;99.90;;;;;;5109086;27;20039;-59
2023/05/12 10:19:06;;;;;;;18.92;17.13;;;20.80;99.90;;;;;;5125098;27;20038;-64
2023/05/12 10:21:32;;;;;;;20.40;18.10;;;20.90;99.90;;;;;;5115495;27;20070;-64
2023/05/12 10:23:59;;;;;;;17.58;15.77;;;20.80;99.90;;;;;;5114173;27;20076;-63
2023/05/12 10:26:26;;;;;;;16.75;15.05;;;21.00;99.90;;;;;;5097502;27;20047;-64
2023/05/12 10:28:52;;;;;;;20.27;15.35;;;21.20;99.90;;;;;;5097467;27;20524;-62
2023/05/12 10:31:18;;;;;;;16.45;14.80;;;21.30;99.90;;;;;;5097280;27;20039;-62
2023/05/12 10:33:58;;;;;;;14.35;12.95;;;21.40;99.90;;;;;;5114026;27;20035;-64
2023/05/12 10:36:24;;;;;;;16.45;14.75;;;21.60;99.90;;;;;;5132592;27;20043;-64
2023/05/12 10:38:49;;;;;;;14.38;12.70;;;21.80;99.90;;;;;;5096950;27;20122;-63
2023/05/12 10:41:27;;;;;;;15.43;12.40;;;22.00;99.90;;;;;;5129051;27;20038;-63
2023/05/12 10:43:52;;;;;;;13.60;12.20;;;21.90;99.90;;;;;;5113888;27;20035;-63
2023/05/12 10:46:20;;;;;;;15.30;13.75;;;21.80;99.90;;;;;;5097255;27;20054;-62
2023/05/12 10:49:11;;;;;;;17.88;14.95;;;21.70;99.90;;;;;;5113028;27;20035;-62
2023/05/12 10:51:37;;;;;;;15.90;13.95;;;21.60;99.90;;;;;;5097185;28;20410;-57
2023/05/12 10:54:05;;;;;;;15.25;13.75;;;21.60;99.90;;;;;;5121340;27;20050;-62
2023/05/12 10:56:42;;;;;;;15.30;13.68;;;21.70;99.90;;;;;;5108360;27;20126;-62
2023/05/12 10:59:17;;;;;;;15.13;13.48;;;21.80;99.90;;;;;;5128598;27;20023;-58
2023/05/12 11:02:04;;;;;;;16.58;14.70;;;21.90;99.90;;;;;;5085679;28;20071;-63
2023/05/12 11:04:51;;;;;;;18.20;15.27;;;22.20;99.90;;;;;;5080709;27;20121;-60
2023/05/12 11:07:28;;;;;;;13.43;12.02;;;22.20;99.90;;;;;;5092677;27;20039;-64
2023/05/12 11:09:56;;;;;;;14.15;12.77;;;22.20;99.90;;;;;;5097510;27;20032;-63
2023/05/12 11:12:22;;;;;;;14.82;13.32;;;22.10;99.90;;;;;;5113035;27;20497;-60
2023/05/12 11:14:48;;;;;;;17.05;12.85;;;22.10;99.90;;;;;;5113154;27;20443;-63
2023/05/12 11:17:14;;;;;;;13.38;11.98;;;22.20;99.90;;;;;;5109940;27;20047;-60
2023/05/12 11:19:46;;;;;;;12.63;10.95;;;22.20;99.90;;;;;;5108040;27;20031;-62
2023/05/12 11:22:13;;;;;;;11.77;10.57;;;22.00;99.90;;;;;;5111926;27;20074;-62
2023/05/12 11:24:40;;;;;;;12.52;11.25;;;22.00;99.90;;;;;;5106697;27;20045;-64
2023/05/12 11:27:11;;;;;;;11.75;9.70;;;22.10;99.90;;;;;;5113234;27;20542;-62
2023/05/12 11:29:38;;;;;;;10.20;9.20;;;22.30;99.90;;;;;;5110498;27;20038;-61
2023/05/12 11:32:05;;;;;;;12.45;10.48;;;22.40;99.90;;;;;;5092267;27;20092;-61
2023/05/12 11:34:30;;;;;;;11.75;10.52;;;22.70;99.90;;;;;;5109347;27;20051;-65
2023/05/12 11:36:56;;;;;;;10.98;9.73;;;22.80;99.90;;;;;;5095474;27;20099;-65
2023/05/12 11:39:25;;;;;;;11.18;8.80;;;22.80;99.90;;;;;;5110048;27;20077;-69
2023/05/12 11:41:51;;;;;;;10.18;8.60;;;22.90;99.90;;;;;;5102274;27;20039;-62
2023/05/12 11:44:22;;;;;;;10.18;9.07;;;23.00;99.90;;;;;;5112432;27;20120;-62
2023/05/12 11:47:18;;;;;;;9.70;7.97;;;23.10;99.90;;;;;;5112748;27;20039;-63
2023/05/12 11:49:53;;;;;;;8.90;7.88;;;23.20;99.90;;;;;;5111510;27;20048;-62
2023/05/12 11:52:21;;;;;;;9.20;8.35;;;23.20;99.90;;;;;;5107137;28;20036;-64
2023/05/12 11:55:18;;;;;;;11.10;8.07;;;23.40;99.90;;;;;;5112544;27;20039;-63
2023/05/12 11:57:58;;;;;;;10.63;8.38;;;23.40;99.90;;;;;;5111879;27;20142;-62
2023/05/12 12:00:34;;;;;;;13.65;8.98;;;23.50;99.90;;;;;;5112153;27;20110;-65
2023/05/12 12:03:07;;;;;;;10.85;9.23;;;23.40;98.20;;;;;;5106912;28;20032;-60
2023/05/12 12:05:33;;;;;;;13.25;9.38;;;23.50;99.00;;;;;;5112037;27;20231;-67
2023/05/12 12:08:12;;;;;;;13.20;10.13;;;23.50;99.30;;;;;;5112089;27;20046;-62
2023/05/12 12:10:38;;;;;;;10.90;9.70;;;23.60;98.60;;;;;;5112307;27;20082;-64
2023/05/12 12:13:04;;;;;;;11.55;10.35;;;23.70;99.40;;;;;;5095274;27;20058;-62
2023/05/12 12:15:30;;;;;;;10.82;9.63;;;23.70;99.10;;;;;;5111880;27;20035;-63
2023/05/12 12:17:56;;;;;;;9.50;8.60;;;23.80;98.80;;;;;;5094930;27;20096;-63
2023/05/12 12:20:23;;;;;;;10.18;9.18;;;23.90;98.90;;;;;;5078221;28;20068;-63
2023/05/12 12:22:50;;;;;;;11.48;10.15;;;24.00;98.20;;;;;;5099980;28;20087;-65
2023/05/12 12:25:16;;;;;;;13.13;9.20;;;24.10;98.40;;;;;;5110016;28;20051;-63
2023/05/12 12:27:42;;;;;;;10.85;8.63;;;23.90;97.20;;;;;;5075218;28;20528;-64
2023/05/12 12:30:08;;;;;;;11.73;10.32;;;24.00;98.10;;;;;;5091328;28;20047;-62
2023/05/12 12:32:34;;;;;;;11.38;9.40;;;24.00;98.10;;;;;;5074944;28;20484;-62